Boquim, Brazil
Current Conditions -  °F | °C
As of 6:00 PM on Friday 31 Oct 2014 (Local Time) from SBAR Reporting Station
Scattered Clouds Scattered Clouds  
Wind Chill: 81°   Ceiling: Unl
Heat Index: 83°   Visibility: 6mi
Dew Point: 68°   Wind: 13mph
Humidity: 65%   Direction: 130°SE
Pressure: 29.97"   Gusts: NA
Location:  11.15°S, 37.62°W
Report Text: SBAR 312100Z 13011KT 9999 FEW018 SCT080 27/20 Q1015
Loading
Personal Weather Stations






























Interactive Weather Map
Tropical Storm Tracking
New forecast layout! Learn more

10-Day Weather Forecast

Advertisements
Track Severe Weather on mobile